sensor_id;sensor_type;location;lat;lon;timestamp;P1;durP1;ratioP1;P2;durP2;ratioP2
77722;SDS011;67811;42.656;23.394;2023-03-14T00:02:25;2.05;;;1.42;;
77722;SDS011;67811;42.656;23.394;2023-03-14T00:04:55;1.45;;;1.10;;
77722;SDS011;67811;42.656;23.394;2023-03-14T00:07:26;2.47;;;2.28;;
77722;SDS011;67811;42.656;23.394;2023-03-14T00:09:56;2.80;;;1.33;;
77722;SDS011;67811;42.656;23.394;2023-03-14T00:12:28;1.17;;;1.17;;
77722;SDS011;67811;42.656;23.394;2023-03-14T00:14:59;4.65;;;1.90;;
77722;SDS011;67811;42.656;23.394;2023-03-14T00:17:29;2.38;;;2.13;;
77722;SDS011;67811;42.656;23.394;2023-03-14T00:20:00;2.25;;;2.15;;
77722;SDS011;67811;42.656;23.394;2023-03-14T00:22:31;1.75;;;1.65;;
77722;SDS011;67811;42.656;23.394;2023-03-14T00:25:02;5.78;;;2.50;;
77722;SDS011;67811;42.656;23.394;2023-03-14T00:27:36;2.65;;;1.60;;
77722;SDS011;67811;42.656;23.394;2023-03-14T00:30:07;1.70;;;1.60;;
77722;SDS011;67811;42.656;23.394;2023-03-14T00:32:38;0.98;;;0.85;;
77722;SDS011;67811;42.656;23.394;2023-03-14T00:35:09;2.97;;;1.85;;
77722;SDS011;67811;42.656;23.394;2023-03-14T00:37:39;1.65;;;1.55;;
77722;SDS011;67811;42.656;23.394;2023-03-14T00:40:10;3.03;;;2.72;;
77722;SDS011;67811;42.656;23.394;2023-03-14T00:42:42;1.13;;;0.77;;
77722;SDS011;67811;42.656;23.394;2023-03-14T00:45:13;1.17;;;1.10;;
77722;SDS011;67811;42.656;23.394;2023-03-14T00:47:43;2.25;;;1.83;;
77722;SDS011;67811;42.656;23.394;2023-03-14T00:50:14;2.42;;;1.48;;
77722;SDS011;67811;42.656;23.394;2023-03-14T00:52:45;2.22;;;2.10;;
77722;SDS011;67811;42.656;23.394;2023-03-14T00:55:15;0.82;;;0.82;;
77722;SDS011;67811;42.656;23.394;2023-03-14T00:57:47;1.15;;;1.15;;
77722;SDS011;67811;42.656;23.394;2023-03-14T01:00:18;2.38;;;2.17;;
77722;SDS011;67811;42.656;23.394;2023-03-14T01:02:49;4.57;;;3.10;;
77722;SDS011;67811;42.656;23.394;2023-03-14T01:05:19;4.35;;;3.95;;
77722;SDS011;67811;42.656;23.394;2023-03-14T01:07:51;10.60;;;2.13;;
77722;SDS011;67811;42.656;23.394;2023-03-14T01:10:22;6.22;;;3.63;;
77722;SDS011;67811;42.656;23.394;2023-03-14T01:12:54;2.58;;;2.38;;
77722;SDS011;67811;42.656;23.394;2023-03-14T01:15:25;2.55;;;1.63;;
77722;SDS011;67811;42.656;23.394;2023-03-14T01:17:55;8.68;;;2.05;;
77722;SDS011;67811;42.656;23.394;2023-03-14T01:20:26;3.03;;;2.83;;
77722;SDS011;67811;42.656;23.394;2023-03-14T01:22:57;3.60;;;1.88;;
77722;SDS011;67811;42.656;23.394;2023-03-14T01:25:27;4.55;;;1.77;;
77722;SDS011;67811;42.656;23.394;2023-03-14T01:27:59;1.42;;;1.35;;
77722;SDS011;67811;42.656;23.394;2023-03-14T01:30:30;1.30;;;1.23;;
77722;SDS011;67811;42.656;23.394;2023-03-14T01:33:00;1.67;;;1.27;;
77722;SDS011;67811;42.656;23.394;2023-03-14T01:35:31;1.17;;;1.17;;
77722;SDS011;67811;42.656;23.394;2023-03-14T01:38:02;1.15;;;0.82;;
77722;SDS011;67811;42.656;23.394;2023-03-14T01:40:32;1.33;;;1.25;;
77722;SDS011;67811;42.656;23.394;2023-03-14T01:43:12;6.93;;;1.80;;
77722;SDS011;67811;42.656;23.394;2023-03-14T01:48:55;2.20;;;2.03;;
77722;SDS011;67811;42.656;23.394;2023-03-14T01:51:31;1.13;;;0.57;;
77722;SDS011;67811;42.656;23.394;2023-03-14T01:54:08;2.28;;;2.10;;
77722;SDS011;67811;42.656;23.394;2023-03-14T01:56:43;2.55;;;1.73;;
77722;SDS011;67811;42.656;23.394;2023-03-14T01:59:18;1.92;;;1.83;;
77722;SDS011;67811;42.656;23.394;2023-03-14T02:01:49;1.45;;;1.10;;
77722;SDS011;67811;42.656;23.394;2023-03-14T02:04:22;1.60;;;1.50;;
77722;SDS011;67811;42.656;23.394;2023-03-14T02:06:55;1.75;;;1.05;;
77722;SDS011;67811;42.656;23.394;2023-03-14T02:09:30;1.73;;;1.50;;
77722;SDS011;67811;42.656;23.394;2023-03-14T02:12:01;4.72;;;1.88;;
77722;SDS011;67811;42.656;23.394;2023-03-14T02:14:34;1.58;;;1.48;;
77722;SDS011;67811;42.656;23.394;2023-03-14T02:19:44;0.88;;;0.88;;
77722;SDS011;67811;42.656;23.394;2023-03-14T02:22:24;2.72;;;2.53;;
77722;SDS011;67811;42.656;23.394;2023-03-14T02:24:57;1.67;;;1.60;;
77722;SDS011;67811;42.656;23.394;2023-03-14T02:27:37;1.90;;;1.00;;
77722;SDS011;67811;42.656;23.394;2023-03-14T02:30:10;1.35;;;1.27;;
77722;SDS011;67811;42.656;23.394;2023-03-14T02:32:44;1.80;;;1.65;;
77722;SDS011;67811;42.656;23.394;2023-03-14T02:35:18;3.05;;;2.33;;
77722;SDS011;67811;42.656;23.394;2023-03-14T02:37:53;1.23;;;1.13;;
77722;SDS011;67811;42.656;23.394;2023-03-14T02:40:27;4.75;;;3.42;;
77722;SDS011;67811;42.656;23.394;2023-03-14T02:42:59;2.38;;;1.90;;
77722;SDS011;67811;42.656;23.394;2023-03-14T02:45:34;4.20;;;3.08;;
77722;SDS011;67811;42.656;23.394;2023-03-14T02:48:09;3.58;;;2.83;;
77722;SDS011;67811;42.656;23.394;2023-03-14T02:50:45;2.25;;;2.05;;
77722;SDS011;67811;42.656;23.394;2023-03-14T02:53:19;2.78;;;1.55;;
77722;SDS011;67811;42.656;23.394;2023-03-14T02:55:53;2.33;;;2.15;;
77722;SDS011;67811;42.656;23.394;2023-03-14T02:58:25;2.88;;;2.55;;
77722;SDS011;67811;42.656;23.394;2023-03-14T03:00:56;2.63;;;2.35;;
77722;SDS011;67811;42.656;23.394;2023-03-14T03:03:27;3.42;;;3.13;;
77722;SDS011;67811;42.656;23.394;2023-03-14T03:05:57;3.05;;;2.75;;
77722;SDS011;67811;42.656;23.394;2023-03-14T03:08:28;5.57;;;2.63;;
77722;SDS011;67811;42.656;23.394;2023-03-14T03:10:59;3.38;;;2.97;;
77722;SDS011;67811;42.656;23.394;2023-03-14T03:13:31;3.88;;;2.58;;
77722;SDS011;67811;42.656;23.394;2023-03-14T03:16:02;3.28;;;3.03;;
77722;SDS011;67811;42.656;23.394;2023-03-14T03:18:33;6.32;;;3.45;;
77722;SDS011;67811;42.656;23.394;2023-03-14T03:21:04;3.72;;;2.60;;
77722;SDS011;67811;42.656;23.394;2023-03-14T03:23:35;2.22;;;2.03;;
77722;SDS011;67811;42.656;23.394;2023-03-14T03:26:06;4.78;;;2.78;;
77722;SDS011;67811;42.656;23.394;2023-03-14T03:28:40;3.15;;;2.35;;
77722;SDS011;67811;42.656;23.394;2023-03-14T03:31:11;4.57;;;3.75;;
77722;SDS011;67811;42.656;23.394;2023-03-14T03:33:42;2.47;;;2.28;;
77722;SDS011;67811;42.656;23.394;2023-03-14T03:36:12;3.35;;;2.80;;
77722;SDS011;67811;42.656;23.394;2023-03-14T03:38:43;2.92;;;2.70;;
77722;SDS011;67811;42.656;23.394;2023-03-14T03:41:14;1.95;;;1.85;;
77722;SDS011;67811;42.656;23.394;2023-03-14T03:43:46;2.28;;;2.10;;
77722;SDS011;67811;42.656;23.394;2023-03-14T03:46:16;3.35;;;2.10;;
77722;SDS011;67811;42.656;23.394;2023-03-14T03:48:47;4.32;;;2.80;;
77722;SDS011;67811;42.656;23.394;2023-03-14T03:51:17;4.13;;;2.85;;
77722;SDS011;67811;42.656;23.394;2023-03-14T03:53:48;5.90;;;3.00;;
77722;SDS011;67811;42.656;23.394;2023-03-14T03:56:18;2.40;;;1.73;;
77722;SDS011;67811;42.656;23.394;2023-03-14T03:58:50;7.03;;;2.25;;
77722;SDS011;67811;42.656;23.394;2023-03-14T04:01:21;3.47;;;3.15;;
77722;SDS011;67811;42.656;23.394;2023-03-14T04:03:51;3.00;;;1.83;;
77722;SDS011;67811;42.656;23.394;2023-03-14T04:06:22;5.85;;;3.40;;
77722;SDS011;67811;42.656;23.394;2023-03-14T04:08:53;5.90;;;2.85;;
77722;SDS011;67811;42.656;23.394;2023-03-14T04:11:24;2.00;;;1.85;;
77722;SDS011;67811;42.656;23.394;2023-03-14T04:13:56;2.17;;;1.85;;
77722;SDS011;67811;42.656;23.394;2023-03-14T04:16:26;4.45;;;3.80;;
77722;SDS011;67811;42.656;23.394;2023-03-14T04:18:57;3.75;;;3.45;;
77722;SDS011;67811;42.656;23.394;2023-03-14T04:21:27;4.30;;;3.80;;
77722;SDS011;67811;42.656;23.394;2023-03-14T04:23:58;4.53;;;3.90;;
77722;SDS011;67811;42.656;23.394;2023-03-14T04:26:28;3.13;;;2.83;;
77722;SDS011;67811;42.656;23.394;2023-03-14T04:29:00;1.63;;;1.50;;
77722;SDS011;67811;42.656;23.394;2023-03-14T04:31:31;10.35;;;4.55;;
77722;SDS011;67811;42.656;23.394;2023-03-14T04:34:01;5.97;;;4.60;;
77722;SDS011;67811;42.656;23.394;2023-03-14T04:36:32;3.25;;;2.45;;
77722;SDS011;67811;42.656;23.394;2023-03-14T04:39:02;4.65;;;4.15;;
77722;SDS011;67811;42.656;23.394;2023-03-14T04:41:33;2.30;;;2.15;;
77722;SDS011;67811;42.656;23.394;2023-03-14T04:44:05;6.53;;;3.15;;
77722;SDS011;67811;42.656;23.394;2023-03-14T04:46:36;3.30;;;2.13;;
77722;SDS011;67811;42.656;23.394;2023-03-14T04:49:06;2.10;;;1.90;;
77722;SDS011;67811;42.656;23.394;2023-03-14T04:51:37;1.58;;;1.25;;
77722;SDS011;67811;42.656;23.394;2023-03-14T04:54:07;1.58;;;1.50;;
77722;SDS011;67811;42.656;23.394;2023-03-14T04:56:38;1.92;;;1.58;;
77722;SDS011;67811;42.656;23.394;2023-03-14T04:59:10;1.95;;;1.85;;
77722;SDS011;67811;42.656;23.394;2023-03-14T05:01:41;1.92;;;1.75;;
77722;SDS011;67811;42.656;23.394;2023-03-14T05:04:11;2.45;;;2.25;;
77722;SDS011;67811;42.656;23.394;2023-03-14T05:06:42;2.05;;;0.80;;
77722;SDS011;67811;42.656;23.394;2023-03-14T05:09:13;3.38;;;2.05;;
77722;SDS011;67811;42.656;23.394;2023-03-14T05:11:43;3.05;;;2.50;;
77722;SDS011;67811;42.656;23.394;2023-03-14T05:14:15;2.75;;;2.00;;
77722;SDS011;67811;42.656;23.394;2023-03-14T05:16:46;4.07;;;2.97;;
77722;SDS011;67811;42.656;23.394;2023-03-14T05:19:17;5.43;;;2.17;;
77722;SDS011;67811;42.656;23.394;2023-03-14T05:21:47;4.07;;;1.70;;
77722;SDS011;67811;42.656;23.394;2023-03-14T05:24:18;2.97;;;2.20;;
77722;SDS011;67811;42.656;23.394;2023-03-14T05:26:48;3.17;;;2.88;;
77722;SDS011;67811;42.656;23.394;2023-03-14T05:29:20;1.48;;;1.38;;
77722;SDS011;67811;42.656;23.394;2023-03-14T05:31:51;2.72;;;2.53;;
77722;SDS011;67811;42.656;23.394;2023-03-14T05:34:21;0.50;;;0.50;;
77722;SDS011;67811;42.656;23.394;2023-03-14T05:36:52;1.58;;;1.33;;
77722;SDS011;67811;42.656;23.394;2023-03-14T05:39:23;2.33;;;2.10;;
77722;SDS011;67811;42.656;23.394;2023-03-14T05:41:54;7.55;;;1.92;;
77722;SDS011;67811;42.656;23.394;2023-03-14T05:44:26;3.17;;;2.58;;
77722;SDS011;67811;42.656;23.394;2023-03-14T05:46:56;4.32;;;2.38;;
77722;SDS011;67811;42.656;23.394;2023-03-14T05:49:27;1.17;;;0.93;;
77722;SDS011;67811;42.656;23.394;2023-03-14T05:51:57;1.40;;;1.30;;
77722;SDS011;67811;42.656;23.394;2023-03-14T05:54:28;2.63;;;2.42;;
77722;SDS011;67811;42.656;23.394;2023-03-14T05:56:58;2.88;;;2.67;;
77722;SDS011;67811;42.656;23.394;2023-03-14T05:59:30;5.53;;;3.50;;
77722;SDS011;67811;42.656;23.394;2023-03-14T06:02:01;7.70;;;5.35;;
77722;SDS011;67811;42.656;23.394;2023-03-14T06:04:31;3.65;;;3.28;;
77722;SDS011;67811;42.656;23.394;2023-03-14T06:07:02;7.95;;;4.13;;
77722;SDS011;67811;42.656;23.394;2023-03-14T06:09:33;4.45;;;3.85;;
77722;SDS011;67811;42.656;23.394;2023-03-14T06:12:03;7.18;;;5.13;;
77722;SDS011;67811;42.656;23.394;2023-03-14T06:14:35;5.43;;;4.15;;
77722;SDS011;67811;42.656;23.394;2023-03-14T06:17:06;8.38;;;3.92;;
77722;SDS011;67811;42.656;23.394;2023-03-14T06:19:37;7.88;;;4.30;;
77722;SDS011;67811;42.656;23.394;2023-03-14T06:22:07;8.57;;;3.97;;
77722;SDS011;67811;42.656;23.394;2023-03-14T06:24:38;6.00;;;4.05;;
77722;SDS011;67811;42.656;23.394;2023-03-14T06:27:08;6.50;;;3.17;;
77722;SDS011;67811;42.656;23.394;2023-03-14T06:29:40;5.38;;;4.10;;
77722;SDS011;67811;42.656;23.394;2023-03-14T06:32:11;7.38;;;3.67;;
77722;SDS011;67811;42.656;23.394;2023-03-14T06:34:41;5.53;;;3.88;;
77722;SDS011;67811;42.656;23.394;2023-03-14T06:37:12;4.97;;;3.78;;
77722;SDS011;67811;42.656;23.394;2023-03-14T06:39:42;6.57;;;4.78;;
77722;SDS011;67811;42.656;23.394;2023-03-14T06:42:13;7.40;;;4.60;;
77722;SDS011;67811;42.656;23.394;2023-03-14T06:44:45;6.28;;;4.63;;
77722;SDS011;67811;42.656;23.394;2023-03-14T06:47:15;6.82;;;4.32;;
77722;SDS011;67811;42.656;23.394;2023-03-14T06:49:46;10.35;;;6.15;;
77722;SDS011;67811;42.656;23.394;2023-03-14T06:52:17;6.18;;;3.80;;
77722;SDS011;67811;42.656;23.394;2023-03-14T06:54:47;7.13;;;5.13;;
77722;SDS011;67811;42.656;23.394;2023-03-14T06:57:18;8.73;;;4.82;;
77722;SDS011;67811;42.656;23.394;2023-03-14T06:59:50;9.00;;;5.03;;
77722;SDS011;67811;42.656;23.394;2023-03-14T07:02:20;9.00;;;4.72;;
77722;SDS011;67811;42.656;23.394;2023-03-14T07:04:52;12.18;;;7.95;;
77722;SDS011;67811;42.656;23.394;2023-03-14T07:07:22;10.55;;;4.80;;
77722;SDS011;67811;42.656;23.394;2023-03-14T07:09:53;7.43;;;5.22;;
77722;SDS011;67811;42.656;23.394;2023-03-14T07:12:24;7.72;;;4.70;;
77722;SDS011;67811;42.656;23.394;2023-03-14T07:14:56;8.57;;;5.05;;
77722;SDS011;67811;42.656;23.394;2023-03-14T07:17:26;8.10;;;5.15;;
77722;SDS011;67811;42.656;23.394;2023-03-14T07:19:57;7.55;;;5.53;;
77722;SDS011;67811;42.656;23.394;2023-03-14T07:22:27;8.73;;;6.13;;
77722;SDS011;67811;42.656;23.394;2023-03-14T07:24:58;8.77;;;5.70;;
77722;SDS011;67811;42.656;23.394;2023-03-14T07:27:29;10.27;;;6.47;;
77722;SDS011;67811;42.656;23.394;2023-03-14T07:30:00;9.50;;;5.82;;
77722;SDS011;67811;42.656;23.394;2023-03-14T07:32:31;13.93;;;7.53;;
77722;SDS011;67811;42.656;23.394;2023-03-14T07:35:02;10.68;;;7.53;;
77722;SDS011;67811;42.656;23.394;2023-03-14T07:37:33;11.15;;;7.25;;
77722;SDS011;67811;42.656;23.394;2023-03-14T07:40:04;12.90;;;6.53;;
77722;SDS011;67811;42.656;23.394;2023-03-14T07:42:36;12.43;;;7.15;;
77722;SDS011;67811;42.656;23.394;2023-03-14T07:45:09;11.52;;;7.80;;
77722;SDS011;67811;42.656;23.394;2023-03-14T07:47:40;9.80;;;6.25;;
77722;SDS011;67811;42.656;23.394;2023-03-14T07:50:10;9.95;;;7.00;;
77722;SDS011;67811;42.656;23.394;2023-03-14T07:52:41;14.98;;;7.90;;
77722;SDS011;67811;42.656;23.394;2023-03-14T07:55:12;11.38;;;7.22;;
77722;SDS011;67811;42.656;23.394;2023-03-14T07:57:42;14.02;;;6.50;;
77722;SDS011;67811;42.656;23.394;2023-03-14T08:00:15;10.88;;;5.85;;
77722;SDS011;67811;42.656;23.394;2023-03-14T08:02:45;9.90;;;6.18;;
77722;SDS011;67811;42.656;23.394;2023-03-14T08:05:16;8.50;;;5.28;;
77722;SDS011;67811;42.656;23.394;2023-03-14T08:07:47;9.52;;;5.45;;
77722;SDS011;67811;42.656;23.394;2023-03-14T08:10:17;10.18;;;5.57;;
77722;SDS011;67811;42.656;23.394;2023-03-14T08:12:48;8.43;;;5.50;;
77722;SDS011;67811;42.656;23.394;2023-03-14T08:15:20;9.18;;;5.63;;
77722;SDS011;67811;42.656;23.394;2023-03-14T08:17:52;10.20;;;6.00;;
77722;SDS011;67811;42.656;23.394;2023-03-14T08:20:23;14.10;;;9.52;;
77722;SDS011;67811;42.656;23.394;2023-03-14T08:22:56;7.18;;;5.78;;
77722;SDS011;67811;42.656;23.394;2023-03-14T08:25:27;10.38;;;5.25;;
77722;SDS011;67811;42.656;23.394;2023-03-14T08:27:58;9.85;;;4.63;;
77722;SDS011;67811;42.656;23.394;2023-03-14T08:30:30;10.55;;;6.00;;
77722;SDS011;67811;42.656;23.394;2023-03-14T08:33:01;7.60;;;5.65;;
77722;SDS011;67811;42.656;23.394;2023-03-14T08:35:31;7.43;;;5.38;;
77722;SDS011;67811;42.656;23.394;2023-03-14T08:38:02;12.68;;;7.80;;
77722;SDS011;67811;42.656;23.394;2023-03-14T08:40:33;5.90;;;4.03;;
77722;SDS011;67811;42.656;23.394;2023-03-14T08:43:03;5.57;;;4.60;;
77722;SDS011;67811;42.656;23.394;2023-03-14T08:45:35;7.43;;;4.50;;
77722;SDS011;67811;42.656;23.394;2023-03-14T08:48:06;6.22;;;4.22;;
77722;SDS011;67811;42.656;23.394;2023-03-14T08:50:36;6.97;;;4.00;;
77722;SDS011;67811;42.656;23.394;2023-03-14T08:53:07;8.85;;;5.38;;
77722;SDS011;67811;42.656;23.394;2023-03-14T08:55:38;6.60;;;5.30;;
77722;SDS011;67811;42.656;23.394;2023-03-14T08:58:08;5.95;;;3.95;;
77722;SDS011;67811;42.656;23.394;2023-03-14T09:00:40;7.70;;;3.50;;
77722;SDS011;67811;42.656;23.394;2023-03-14T09:03:10;8.52;;;5.32;;
77722;SDS011;67811;42.656;23.394;2023-03-14T09:05:41;4.45;;;3.65;;
77722;SDS011;67811;42.656;23.394;2023-03-14T09:08:12;5.82;;;3.85;;
77722;SDS011;67811;42.656;23.394;2023-03-14T09:10:42;6.47;;;4.80;;
77722;SDS011;67811;42.656;23.394;2023-03-14T09:13:13;7.00;;;4.38;;
77722;SDS011;67811;42.656;23.394;2023-03-14T09:15:45;8.88;;;5.10;;
77722;SDS011;67811;42.656;23.394;2023-03-14T09:18:20;8.20;;;5.20;;
77722;SDS011;67811;42.656;23.394;2023-03-14T09:20:51;7.07;;;4.55;;
77722;SDS011;67811;42.656;23.394;2023-03-14T09:23:22;7.82;;;4.78;;
77722;SDS011;67811;42.656;23.394;2023-03-14T09:25:54;6.10;;;4.10;;
77722;SDS011;67811;42.656;23.394;2023-03-14T09:28:25;8.02;;;4.60;;
77722;SDS011;67811;42.656;23.394;2023-03-14T09:30:57;5.20;;;4.22;;
77722;SDS011;67811;42.656;23.394;2023-03-14T09:33:28;5.90;;;3.80;;
77722;SDS011;67811;42.656;23.394;2023-03-14T09:35:58;6.82;;;3.88;;
77722;SDS011;67811;42.656;23.394;2023-03-14T09:38:29;6.35;;;3.25;;
77722;SDS011;67811;42.656;23.394;2023-03-14T09:41:00;7.03;;;3.03;;
77722;SDS011;67811;42.656;23.394;2023-03-14T09:43:32;5.93;;;3.15;;
77722;SDS011;67811;42.656;23.394;2023-03-14T09:46:07;4.05;;;3.17;;
77722;SDS011;67811;42.656;23.394;2023-03-14T09:48:40;5.95;;;3.38;;
77722;SDS011;67811;42.656;23.394;2023-03-14T09:51:12;5.22;;;3.88;;
77722;SDS011;67811;42.656;23.394;2023-03-14T09:53:45;4.95;;;3.17;;
77722;SDS011;67811;42.656;23.394;2023-03-14T09:56:18;10.50;;;3.45;;
77722;SDS011;67811;42.656;23.394;2023-03-14T09:58:51;5.28;;;3.03;;
77722;SDS011;67811;42.656;23.394;2023-03-14T10:01:27;4.10;;;2.55;;
77722;SDS011;67811;42.656;23.394;2023-03-14T10:04:00;3.95;;;2.78;;
77722;SDS011;67811;42.656;23.394;2023-03-14T10:06:34;3.17;;;2.15;;
77722;SDS011;67811;42.656;23.394;2023-03-14T10:09:04;3.55;;;2.80;;
77722;SDS011;67811;42.656;23.394;2023-03-14T10:11:35;3.55;;;2.20;;
77722;SDS011;67811;42.656;23.394;2023-03-14T10:14:07;3.55;;;2.55;;
77722;SDS011;67811;42.656;23.394;2023-03-14T10:19:14;3.17;;;1.77;;
77722;SDS011;67811;42.656;23.394;2023-03-14T10:21:50;2.92;;;2.63;;
77722;SDS011;67811;42.656;23.394;2023-03-14T10:24:26;5.93;;;2.78;;
77722;SDS011;67811;42.656;23.394;2023-03-14T10:26:59;3.40;;;3.03;;
77722;SDS011;67811;42.656;23.394;2023-03-14T10:29:32;3.92;;;2.05;;
77722;SDS011;67811;42.656;23.394;2023-03-14T10:32:05;4.90;;;2.45;;
77722;SDS011;67811;42.656;23.394;2023-03-14T10:34:38;2.47;;;2.28;;
77722;SDS011;67811;42.656;23.394;2023-03-14T10:37:16;2.78;;;1.92;;
77722;SDS011;67811;42.656;23.394;2023-03-14T10:39:50;4.30;;;1.73;;
77722;SDS011;67811;42.656;23.394;2023-03-14T10:42:23;4.70;;;2.70;;
77722;SDS011;67811;42.656;23.394;2023-03-14T10:44:57;3.72;;;1.95;;
77722;SDS011;67811;42.656;23.394;2023-03-14T10:47:31;4.25;;;1.67;;
77722;SDS011;67811;42.656;23.394;2023-03-14T10:50:19;3.25;;;1.92;;
77722;SDS011;67811;42.656;23.394;2023-03-14T10:52:53;2.75;;;1.70;;
77722;SDS011;67811;42.656;23.394;2023-03-14T10:55:25;1.70;;;1.55;;
77722;SDS011;67811;42.656;23.394;2023-03-14T10:57:55;2.05;;;1.42;;
77722;SDS011;67811;42.656;23.394;2023-03-14T11:00:27;3.42;;;2.10;;
77722;SDS011;67811;42.656;23.394;2023-03-14T11:03:03;4.00;;;2.20;;
77722;SDS011;67811;42.656;23.394;2023-03-14T11:05:41;3.60;;;2.03;;
77722;SDS011;67811;42.656;23.394;2023-03-14T11:08:18;2.42;;;1.45;;
77722;SDS011;67811;42.656;23.394;2023-03-14T11:10:54;3.33;;;1.50;;
77722;SDS011;67811;42.656;23.394;2023-03-14T11:13:29;2.72;;;1.83;;
77722;SDS011;67811;42.656;23.394;2023-03-14T11:16:08;5.78;;;1.63;;
77722;SDS011;67811;42.656;23.394;2023-03-14T11:18:48;1.70;;;1.48;;
77722;SDS011;67811;42.656;23.394;2023-03-14T11:21:28;2.63;;;1.45;;
77722;SDS011;67811;42.656;23.394;2023-03-14T11:24:08;1.90;;;1.63;;
77722;SDS011;67811;42.656;23.394;2023-03-14T11:26:51;1.75;;;1.48;;
77722;SDS011;67811;42.656;23.394;2023-03-14T11:29:28;2.65;;;1.63;;
77722;SDS011;67811;42.656;23.394;2023-03-14T11:32:12;2.88;;;1.55;;
77722;SDS011;67811;42.656;23.394;2023-03-14T11:34:47;3.13;;;1.92;;
77722;SDS011;67811;42.656;23.394;2023-03-14T11:37:22;2.03;;;1.45;;
77722;SDS011;67811;42.656;23.394;2023-03-14T11:39:57;1.83;;;1.20;;
77722;SDS011;67811;42.656;23.394;2023-03-14T11:42:33;2.00;;;1.63;;
77722;SDS011;67811;42.656;23.394;2023-03-14T11:45:04;3.42;;;1.75;;
77722;SDS011;67811;42.656;23.394;2023-03-14T11:47:44;3.35;;;1.63;;
77722;SDS011;67811;42.656;23.394;2023-03-14T11:50:23;4.45;;;1.13;;
77722;SDS011;67811;42.656;23.394;2023-03-14T11:52:58;4.07;;;1.70;;
77722;SDS011;67811;42.656;23.394;2023-03-14T11:55:35;2.03;;;1.65;;
77722;SDS011;67811;42.656;23.394;2023-03-14T11:58:09;2.72;;;1.75;;
77722;SDS011;67811;42.656;23.394;2023-03-14T12:00:44;3.63;;;2.22;;
77722;SDS011;67811;42.656;23.394;2023-03-14T12:03:21;1.92;;;1.25;;
77722;SDS011;67811;42.656;23.394;2023-03-14T12:06:02;2.55;;;1.23;;
77722;SDS011;67811;42.656;23.394;2023-03-14T12:08:45;4.95;;;1.85;;
77722;SDS011;67811;42.656;23.394;2023-03-14T12:11:20;4.32;;;1.85;;
77722;SDS011;67811;42.656;23.394;2023-03-14T12:13:58;4.45;;;1.70;;
77722;SDS011;67811;42.656;23.394;2023-03-14T12:16:32;1.38;;;1.20;;
77722;SDS011;67811;42.656;23.394;2023-03-14T12:19:14;1.40;;;1.30;;
77722;SDS011;67811;42.656;23.394;2023-03-14T12:22:05;1.95;;;1.25;;
77722;SDS011;67811;42.656;23.394;2023-03-14T12:24:49;1.50;;;1.30;;
77722;SDS011;67811;42.656;23.394;2023-03-14T12:27:40;1.85;;;1.20;;
77722;SDS011;67811;42.656;23.394;2023-03-14T12:30:27;2.63;;;1.20;;
77722;SDS011;67811;42.656;23.394;2023-03-14T12:33:21;1.20;;;1.10;;
77722;SDS011;67811;42.656;23.394;2023-03-14T12:35:58;1.15;;;1.05;;
77722;SDS011;67811;42.656;23.394;2023-03-14T12:38:48;1.48;;;1.10;;
77722;SDS011;67811;42.656;23.394;2023-03-14T12:41:26;1.33;;;1.23;;
77722;SDS011;67811;42.656;23.394;2023-03-14T12:44:11;1.85;;;1.67;;
77722;SDS011;67811;42.656;23.394;2023-03-14T12:50:31;0.98;;;0.70;;
77722;SDS011;67811;42.656;23.394;2023-03-14T12:56:08;1.70;;;1.40;;
77722;SDS011;67811;42.656;23.394;2023-03-14T12:58:48;1.60;;;1.40;;
77722;SDS011;67811;42.656;23.394;2023-03-14T13:01:34;2.15;;;1.25;;
77722;SDS011;67811;42.656;23.394;2023-03-14T13:04:07;1.35;;;0.85;;
77722;SDS011;67811;42.656;23.394;2023-03-14T13:06:52;1.55;;;1.10;;
77722;SDS011;67811;42.656;23.394;2023-03-14T13:09:45;2.35;;;1.50;;
77722;SDS011;67811;42.656;23.394;2023-03-14T13:12:27;1.95;;;1.00;;
77722;SDS011;67811;42.656;23.394;2023-03-14T13:15:00;0.88;;;0.60;;
77722;SDS011;67811;42.656;23.394;2023-03-14T13:17:33;0.73;;;0.68;;
77722;SDS011;67811;42.656;23.394;2023-03-14T13:20:09;1.30;;;0.90;;
77722;SDS011;67811;42.656;23.394;2023-03-14T13:22:48;3.28;;;1.10;;
77722;SDS011;67811;42.656;23.394;2023-03-14T13:25:19;2.05;;;1.08;;
77722;SDS011;67811;42.656;23.394;2023-03-14T13:27:53;2.60;;;1.30;;
77722;SDS011;67811;42.656;23.394;2023-03-14T13:30:24;1.67;;;1.10;;
77722;SDS011;67811;42.656;23.394;2023-03-14T13:32:56;1.63;;;1.23;;
77722;SDS011;67811;42.656;23.394;2023-03-14T13:35:28;0.98;;;0.88;;
77722;SDS011;67811;42.656;23.394;2023-03-14T13:38:00;1.98;;;1.35;;
77722;SDS011;67811;42.656;23.394;2023-03-14T13:40:32;0.95;;;0.80;;
77722;SDS011;67811;42.656;23.394;2023-03-14T13:43:09;1.38;;;1.00;;
77722;SDS011;67811;42.656;23.394;2023-03-14T13:45:45;0.95;;;0.55;;
77722;SDS011;67811;42.656;23.394;2023-03-14T13:48:21;1.90;;;0.70;;
77722;SDS011;67811;42.656;23.394;2023-03-14T13:50:56;1.10;;;0.90;;
77722;SDS011;67811;42.656;23.394;2023-03-14T13:53:30;1.10;;;1.00;;
77722;SDS011;67811;42.656;23.394;2023-03-14T13:56:02;1.92;;;0.85;;
77722;SDS011;67811;42.656;23.394;2023-03-14T13:58:35;1.33;;;1.02;;
77722;SDS011;67811;42.656;23.394;2023-03-14T14:01:10;2.05;;;1.30;;
77722;SDS011;67811;42.656;23.394;2023-03-14T14:03:45;0.88;;;0.85;;
77722;SDS011;67811;42.656;23.394;2023-03-14T14:06:23;2.00;;;1.08;;
77722;SDS011;67811;42.656;23.394;2023-03-14T14:08:58;1.48;;;1.38;;
77722;SDS011;67811;42.656;23.394;2023-03-14T14:14:10;1.02;;;0.60;;
77722;SDS011;67811;42.656;23.394;2023-03-14T14:16:44;0.93;;;0.82;;
77722;SDS011;67811;42.656;23.394;2023-03-14T14:19:16;2.95;;;1.60;;
77722;SDS011;67811;42.656;23.394;2023-03-14T14:21:49;1.48;;;1.23;;
77722;SDS011;67811;42.656;23.394;2023-03-14T14:24:20;2.58;;;1.27;;
77722;SDS011;67811;42.656;23.394;2023-03-14T14:26:53;1.30;;;0.95;;
77722;SDS011;67811;42.656;23.394;2023-03-14T14:29:30;1.30;;;0.90;;
77722;SDS011;67811;42.656;23.394;2023-03-14T14:32:03;5.70;;;1.52;;
77722;SDS011;67811;42.656;23.394;2023-03-14T14:34:43;1.25;;;1.05;;
77722;SDS011;67811;42.656;23.394;2023-03-14T14:37:18;2.92;;;0.88;;
77722;SDS011;67811;42.656;23.394;2023-03-14T14:39:51;1.05;;;0.63;;
77722;SDS011;67811;42.656;23.394;2023-03-14T14:42:24;1.25;;;1.10;;
77722;SDS011;67811;42.656;23.394;2023-03-14T14:44:58;0.95;;;0.52;;
77722;SDS011;67811;42.656;23.394;2023-03-14T14:47:32;1.30;;;0.88;;
77722;SDS011;67811;42.656;23.394;2023-03-14T14:50:03;1.10;;;1.00;;
77722;SDS011;67811;42.656;23.394;2023-03-14T14:52:39;2.75;;;0.98;;
77722;SDS011;67811;42.656;23.394;2023-03-14T14:55:12;1.35;;;1.25;;
77722;SDS011;67811;42.656;23.394;2023-03-14T14:57:52;4.00;;;1.35;;
77722;SDS011;67811;42.656;23.394;2023-03-14T15:00:25;2.67;;;0.77;;
77722;SDS011;67811;42.656;23.394;2023-03-14T15:02:58;1.00;;;0.65;;
77722;SDS011;67811;42.656;23.394;2023-03-14T15:05:29;3.97;;;0.80;;
77722;SDS011;67811;42.656;23.394;2023-03-14T15:08:00;1.45;;;1.02;;
77722;SDS011;67811;42.656;23.394;2023-03-14T15:10:31;1.38;;;1.08;;
77722;SDS011;67811;42.656;23.394;2023-03-14T15:13:01;1.30;;;0.75;;
77722;SDS011;67811;42.656;23.394;2023-03-14T15:15:33;3.30;;;1.73;;
77722;SDS011;67811;42.656;23.394;2023-03-14T15:18:08;2.45;;;0.80;;
77722;SDS011;67811;42.656;23.394;2023-03-14T15:20:43;0.90;;;0.80;;
77722;SDS011;67811;42.656;23.394;2023-03-14T15:23:15;1.73;;;1.52;;
77722;SDS011;67811;42.656;23.394;2023-03-14T15:25:47;1.10;;;0.77;;